createdAt,value
2023-04-08T00:04:58.193Z,4.99
2023-04-08T00:10:00.665Z,4.58
2023-04-08T00:15:05.718Z,4.73
2023-04-08T00:20:08.938Z,4.46
2023-04-08T00:25:12.022Z,4.57
2023-04-08T00:30:17.678Z,4.53
2023-04-08T00:35:21.321Z,4.31
2023-04-08T00:40:24.119Z,4.41
2023-04-08T00:45:26.768Z,4.56
2023-04-08T00:50:33.951Z,4.64
2023-04-08T00:55:36.528Z,4.54
2023-04-08T01:00:46.066Z,4.56
2023-04-08T01:06:04.885Z,4.73
2023-04-08T01:11:13.420Z,4.48
2023-04-08T01:16:18.441Z,4.59
2023-04-08T01:21:29.247Z,4.57
2023-04-08T01:26:38.666Z,4.55
2023-04-08T01:31:43.319Z,4.64
2023-04-08T01:36:48.144Z,4.55
2023-04-08T01:41:54.088Z,4.88
2023-04-08T01:46:57.792Z,4.33
2023-04-08T01:52:02.388Z,4.31
2023-04-08T01:57:09.482Z,4.14
2023-04-08T02:02:13.363Z,4.11
2023-04-08T02:07:19.307Z,4.02
2023-04-08T02:12:24.042Z,4.24
2023-04-08T02:17:47.961Z,4.17
2023-04-08T02:23:15.341Z,4.33
2023-04-08T02:28:20.354Z,3.62
2023-04-08T02:33:24.003Z,3.85
2023-04-08T02:38:31.111Z,3.95
2023-04-08T02:43:36.675Z,3.81
2023-04-08T02:48:41.908Z,4.17
2023-04-08T02:53:47.072Z,4.40
2023-04-08T02:58:49.856Z,4.20
2023-04-08T03:03:52.896Z,3.66
2023-04-08T03:08:55.612Z,3.76
2023-04-08T03:13:59.482Z,3.64
2023-04-08T03:19:01.807Z,4.08
2023-04-08T03:24:04.452Z,4.29
2023-04-08T03:29:10.644Z,4.29
2023-04-08T03:34:17.245Z,4.25
2023-04-08T03:39:22.908Z,4.43
2023-04-08T03:44:27.953Z,4.47
2023-04-08T03:49:32.937Z,4.24
2023-04-08T03:54:35.553Z,4.46
2023-04-08T03:59:40.074Z,4.52
2023-04-08T04:04:42.512Z,4.27
2023-04-08T04:09:44.959Z,4.48
2023-04-08T04:14:47.492Z,4.32
2023-04-08T04:19:50.003Z,4.53
2023-04-08T04:24:54.386Z,4.61
2023-04-08T04:30:00.390Z,4.72
2023-04-08T04:35:05.622Z,4.65
2023-04-08T04:40:09.341Z,4.73
2023-04-08T04:45:12.786Z,4.81
2023-04-08T04:50:18.230Z,4.65
2023-04-08T04:55:23.741Z,4.83
2023-04-08T05:00:27.961Z,4.62
2023-04-08T05:05:31.800Z,5.06
2023-04-08T05:10:34.622Z,5.12
2023-04-08T05:15:40.888Z,5.33
2023-04-08T05:20:44.026Z,5.24
2023-04-08T05:25:47.021Z,5.09
2023-04-08T05:30:53.593Z,5.51
2023-04-08T05:35:58.094Z,5.84
2023-04-08T05:41:03.108Z,5.47
2023-04-08T05:46:10.173Z,5.77
2023-04-08T05:51:19.358Z,5.84
2023-04-08T05:56:24.837Z,5.81
2023-04-08T06:01:28.174Z,6.54
2023-04-08T06:06:31.050Z,6.78
2023-04-08T06:11:36.180Z,7.15
2023-04-08T06:16:42.873Z,7.16
2023-04-08T06:21:48.037Z,7.04
2023-04-08T06:26:51.196Z,7.53
2023-04-08T06:31:54.421Z,7.80
2023-04-08T06:37:00.032Z,8.11
2023-04-08T06:42:05.410Z,7.99
2023-04-08T06:47:31.740Z,8.60
2023-04-08T06:52:34.707Z,8.54
2023-04-08T06:57:38.089Z,8.70
2023-04-08T07:02:41.405Z,9.43
2023-04-08T07:07:46.878Z,9.78
2023-04-08T07:12:49.696Z,10.07
2023-04-08T07:17:52.791Z,10.37
2023-04-08T07:22:55.715Z,10.63
2023-04-08T07:28:09.892Z,11.08
2023-04-08T07:33:12.939Z,10.91
2023-04-08T07:38:16.411Z,11.47
2023-04-08T07:43:19.400Z,11.93
2023-04-08T07:48:22.141Z,12.35
2023-04-08T07:53:26.805Z,12.29
2023-04-08T07:58:29.925Z,13.30
2023-04-08T08:03:34.150Z,13.46
2023-04-08T08:08:40.307Z,14.09
2023-04-08T08:13:43.399Z,14.15
2023-04-08T08:18:46.350Z,14.95
2023-04-08T08:23:51.227Z,15.26
2023-04-08T08:28:54.610Z,15.74
2023-04-08T08:33:56.956Z,16.29
2023-04-08T08:39:05.855Z,15.70
2023-04-08T08:44:10.778Z,16.00
2023-04-08T08:49:16.343Z,15.00
2023-04-08T08:54:19.374Z,14.89
2023-04-08T08:59:25.297Z,14.70
2023-04-08T09:04:28.410Z,13.86
2023-04-08T09:09:49.450Z,13.34
2023-04-08T09:14:52.487Z,12.69
2023-04-08T09:20:13.147Z,12.93
2023-04-08T09:25:35.320Z,12.70
2023-04-08T09:30:39.326Z,12.76
2023-04-08T09:35:44.434Z,13.78
2023-04-08T09:40:47.351Z,14.34
2023-04-08T09:45:53.502Z,13.48
2023-04-08T09:50:58.267Z,13.93
2023-04-08T09:56:02.756Z,15.04
2023-04-08T10:01:09.078Z,13.41
2023-04-08T10:06:12.947Z,13.78
2023-04-08T10:11:18.484Z,14.11
2023-04-08T10:16:33.833Z,15.71
2023-04-08T10:21:48.502Z,15.65
2023-04-08T10:26:53.824Z,16.65
2023-04-08T10:32:00.590Z,17.11
2023-04-08T10:37:04.207Z,16.37
2023-04-08T10:42:09.136Z,15.76
2023-04-08T10:47:15.941Z,15.56
2023-04-08T10:52:20.639Z,15.34
2023-04-08T10:57:29.438Z,15.21
2023-04-08T11:02:39.105Z,15.37
2023-04-08T11:07:45.933Z,14.85
2023-04-08T11:12:50.708Z,14.70
2023-04-08T11:17:59.746Z,14.40
2023-04-08T11:23:03.613Z,14.19
2023-04-08T11:28:10.091Z,13.93
2023-04-08T11:33:19.621Z,13.69
2023-04-08T11:38:30.281Z,13.82
2023-04-08T11:43:37.001Z,14.16
2023-04-08T11:48:41.558Z,13.61
2023-04-08T11:53:48.466Z,13.14
2023-04-08T11:58:54.602Z,12.47
2023-04-08T12:04:05.099Z,12.51
2023-04-08T12:09:10.121Z,13.06
2023-04-08T12:14:13.082Z,13.58
2023-04-08T12:19:15.977Z,13.78
2023-04-08T12:24:18.797Z,13.01
2023-04-08T12:29:21.853Z,12.68
2023-04-08T12:34:32.534Z,12.54
2023-04-08T12:39:34.812Z,12.60
2023-04-08T12:44:37.686Z,12.50
2023-04-08T12:54:49.230Z,11.62
2023-04-08T12:59:51.971Z,11.25
2023-04-08T13:04:55.625Z,11.13
2023-04-08T13:10:01.620Z,10.82
2023-04-08T13:15:08.323Z,10.42
2023-04-08T13:20:12.032Z,10.50
2023-04-08T13:25:15.278Z,10.42
2023-04-08T13:30:18.126Z,10.62
2023-04-08T13:35:24.394Z,10.42
2023-04-08T13:40:28.410Z,10.32
2023-04-08T13:45:31.428Z,10.29
2023-04-08T13:50:44.081Z,9.75
2023-04-08T13:55:47.404Z,9.60
2023-04-08T14:00:52.011Z,9.68
2023-04-08T14:05:55.153Z,9.25
2023-04-08T14:11:00.935Z,8.92
2023-04-08T14:16:05.660Z,8.75
2023-04-08T14:21:08.598Z,8.94
2023-04-08T14:26:12.016Z,9.51
2023-04-08T14:31:15.109Z,10.20
2023-04-08T14:36:24.526Z,10.66
2023-04-08T14:41:30.102Z,11.26
2023-04-08T14:46:32.887Z,10.86
2023-04-08T14:51:38.163Z,11.43
2023-04-08T14:56:41.851Z,11.36
2023-04-08T15:01:45.413Z,11.75
2023-04-08T15:06:48.391Z,11.44
2023-04-08T15:11:51.001Z,11.41
2023-04-08T15:16:53.918Z,11.77
2023-04-08T15:21:57.288Z,11.18
2023-04-08T15:27:02.280Z,10.63
2023-04-08T15:32:04.975Z,10.44
2023-04-08T15:37:07.614Z,9.78
2023-04-08T15:42:10.448Z,9.54
2023-04-08T15:47:13.254Z,9.59
2023-04-08T15:52:15.986Z,9.13
2023-04-08T15:57:18.692Z,9.27
2023-04-08T16:02:21.838Z,8.69
2023-04-08T16:07:24.586Z,8.41
2023-04-08T16:12:27.243Z,8.34
2023-04-08T16:17:30.017Z,7.86
2023-04-08T16:22:32.366Z,7.84
2023-04-08T16:27:35.183Z,7.80
2023-04-08T16:32:37.913Z,7.91
2023-04-08T16:37:40.934Z,8.16
2023-04-08T16:42:43.226Z,8.08
2023-04-08T16:47:46.344Z,8.06
2023-04-08T16:52:50.153Z,8.09
2023-04-08T16:57:53.158Z,8.00
2023-04-08T17:02:57.794Z,7.91
2023-04-08T17:08:00.792Z,7.79
2023-04-08T17:13:05.534Z,7.80
2023-04-08T17:18:08.411Z,7.74
2023-04-08T17:23:11.413Z,7.43
2023-04-08T17:28:14.818Z,7.34
2023-04-08T17:33:17.050Z,7.35
2023-04-08T17:38:19.942Z,7.33
2023-04-08T17:43:22.656Z,7.14
2023-04-08T17:48:25.938Z,7.35
2023-04-08T17:53:28.680Z,7.13
2023-04-08T17:58:31.605Z,7.00
2023-04-08T18:03:34.677Z,7.21
2023-04-08T18:08:37.485Z,7.00
2023-04-08T18:13:39.667Z,6.90
2023-04-08T18:18:42.362Z,6.90
2023-04-08T18:23:47.340Z,6.66
2023-04-08T18:28:50.218Z,6.71
2023-04-08T18:33:52.937Z,6.63
2023-04-08T18:38:56.006Z,6.31
2023-04-08T18:44:01.247Z,6.20
2023-04-08T18:49:04.007Z,6.31
2023-04-08T18:54:06.709Z,6.66
2023-04-08T18:59:12.454Z,6.49
2023-04-08T19:04:16.142Z,6.26
2023-04-08T19:09:18.898Z,6.00
2023-04-08T19:14:22.906Z,6.21
2023-04-08T19:19:25.732Z,6.02
2023-04-08T19:24:29.429Z,5.71
2023-04-08T19:29:34.545Z,5.71
2023-04-08T19:34:40.971Z,5.70
2023-04-08T19:39:43.845Z,5.35
2023-04-08T19:44:50.231Z,5.20
2023-04-08T19:49:53.135Z,5.37
2023-04-08T19:54:55.698Z,5.17
2023-04-08T19:59:58.772Z,5.11
2023-04-08T20:05:02.390Z,4.78
2023-04-08T20:10:08.025Z,5.02
2023-04-08T20:15:23.659Z,4.48
2023-04-08T20:20:29.980Z,4.65
2023-04-08T20:25:33.020Z,4.59
2023-04-08T20:30:35.854Z,4.58
2023-04-08T20:35:38.608Z,4.65
2023-04-08T20:40:44.977Z,4.57
2023-04-08T20:45:47.361Z,4.19
2023-04-08T20:50:53.121Z,4.31
2023-04-08T20:55:59.101Z,4.23
2023-04-08T21:01:01.935Z,4.13
2023-04-08T21:06:05.214Z,4.17
2023-04-08T21:11:07.725Z,3.99
2023-04-08T21:16:10.670Z,3.95
2023-04-08T21:21:13.470Z,3.74
2023-04-08T21:26:16.398Z,3.89
2023-04-08T21:31:19.225Z,3.57
2023-04-08T21:36:22.121Z,3.45
2023-04-08T21:41:26.447Z,3.21
2023-04-08T21:46:30.778Z,2.96
2023-04-08T21:51:41.847Z,3.10
2023-04-08T21:56:44.978Z,3.24
2023-04-08T22:01:48.272Z,2.90
2023-04-08T22:06:51.975Z,3.14
2023-04-08T22:11:54.630Z,2.84
2023-04-08T22:16:57.657Z,2.75
2023-04-08T22:22:02.749Z,2.62
2023-04-08T22:27:06.005Z,2.39
2023-04-08T22:32:11.619Z,2.83
2023-04-08T22:37:16.711Z,2.37
2023-04-08T22:42:19.713Z,2.59
2023-04-08T22:47:22.952Z,2.23
2023-04-08T22:52:31.686Z,2.38
2023-04-08T22:57:35.092Z,2.51
2023-04-08T23:02:38.411Z,2.24
2023-04-08T23:07:41.800Z,2.34
2023-04-08T23:12:46.811Z,2.05
2023-04-08T23:17:49.654Z,2.10
2023-04-08T23:22:54.942Z,2.06
2023-04-08T23:27:57.775Z,1.80
2023-04-08T23:33:00.804Z,1.71
2023-04-08T23:38:09.922Z,2.09
2023-04-08T23:43:12.789Z,2.27
2023-04-08T23:48:15.562Z,1.76
2023-04-08T23:53:21.758Z,1.72
2023-04-08T23:58:24.738Z,1.71
